sensor_id;sensor_type;location;lat;lon;timestamp;P1;durP1;ratioP1;P2;durP2;ratioP2
25045;SDS011;13044;49.304;12.840;2023-04-24T00:02:22;5.68;;;2.80;;
25045;SDS011;13044;49.304;12.840;2023-04-24T00:04:50;3.78;;;2.35;;
25045;SDS011;13044;49.304;12.840;2023-04-24T00:07:17;4.90;;;2.60;;
25045;SDS011;13044;49.304;12.840;2023-04-24T00:09:46;2.95;;;2.53;;
25045;SDS011;13044;49.304;12.840;2023-04-24T00:12:13;3.17;;;1.90;;
25045;SDS011;13044;49.304;12.840;2023-04-24T00:14:40;3.47;;;2.00;;
25045;SDS011;13044;49.304;12.840;2023-04-24T00:17:07;3.50;;;2.05;;
25045;SDS011;13044;49.304;12.840;2023-04-24T00:19:34;3.40;;;2.00;;
25045;SDS011;13044;49.304;12.840;2023-04-24T00:22:02;1.95;;;1.73;;
25045;SDS011;13044;49.304;12.840;2023-04-24T00:24:29;3.17;;;2.33;;
25045;SDS011;13044;49.304;12.840;2023-04-24T00:26:56;2.92;;;2.30;;
25045;SDS011;13044;49.304;12.840;2023-04-24T00:29:23;2.45;;;2.25;;
25045;SDS011;13044;49.304;12.840;2023-04-24T00:31:50;2.60;;;2.25;;
25045;SDS011;13044;49.304;12.840;2023-04-24T00:34:18;3.55;;;2.30;;
25045;SDS011;13044;49.304;12.840;2023-04-24T00:36:44;2.75;;;2.47;;
25045;SDS011;13044;49.304;12.840;2023-04-24T00:39:12;3.47;;;2.47;;
25045;SDS011;13044;49.304;12.840;2023-04-24T00:41:39;3.70;;;2.40;;
25045;SDS011;13044;49.304;12.840;2023-04-24T00:44:06;3.65;;;2.30;;
25045;SDS011;13044;49.304;12.840;2023-04-24T00:46:33;2.50;;;2.20;;
25045;SDS011;13044;49.304;12.840;2023-04-24T00:49:00;2.30;;;2.10;;
25045;SDS011;13044;49.304;12.840;2023-04-24T00:51:28;2.60;;;2.30;;
25045;SDS011;13044;49.304;12.840;2023-04-24T00:53:57;2.97;;;2.20;;
25045;SDS011;13044;49.304;12.840;2023-04-24T00:56:24;2.47;;;2.28;;
25045;SDS011;13044;49.304;12.840;2023-04-24T00:58:51;3.33;;;2.40;;
25045;SDS011;13044;49.304;12.840;2023-04-24T01:01:19;3.03;;;2.10;;
25045;SDS011;13044;49.304;12.840;2023-04-24T01:03:48;2.83;;;2.25;;
25045;SDS011;13044;49.304;12.840;2023-04-24T01:06:18;2.28;;;1.77;;
25045;SDS011;13044;49.304;12.840;2023-04-24T01:08:46;3.08;;;1.80;;
25045;SDS011;13044;49.304;12.840;2023-04-24T01:11:14;2.92;;;2.05;;
25045;SDS011;13044;49.304;12.840;2023-04-24T01:13:40;2.13;;;1.80;;
25045;SDS011;13044;49.304;12.840;2023-04-24T01:16:07;2.03;;;1.77;;
25045;SDS011;13044;49.304;12.840;2023-04-24T01:18:34;2.95;;;2.00;;
25045;SDS011;13044;49.304;12.840;2023-04-24T01:21:02;1.83;;;1.63;;
25045;SDS011;13044;49.304;12.840;2023-04-24T01:23:31;2.33;;;1.88;;
25045;SDS011;13044;49.304;12.840;2023-04-24T01:25:58;2.60;;;2.00;;
25045;SDS011;13044;49.304;12.840;2023-04-24T01:28:24;4.30;;;2.20;;
25045;SDS011;13044;49.304;12.840;2023-04-24T01:30:52;7.03;;;2.25;;
25045;SDS011;13044;49.304;12.840;2023-04-24T01:33:20;3.00;;;2.08;;
25045;SDS011;13044;49.304;12.840;2023-04-24T01:35:48;3.28;;;1.75;;
25045;SDS011;13044;49.304;12.840;2023-04-24T01:38:15;2.40;;;2.10;;
25045;SDS011;13044;49.304;12.840;2023-04-24T01:40:42;2.00;;;1.90;;
25045;SDS011;13044;49.304;12.840;2023-04-24T01:43:09;2.85;;;1.92;;
25045;SDS011;13044;49.304;12.840;2023-04-24T01:45:38;2.67;;;1.92;;
25045;SDS011;13044;49.304;12.840;2023-04-24T01:48:05;6.13;;;2.03;;
25045;SDS011;13044;49.304;12.840;2023-04-24T01:50:32;3.90;;;2.28;;
25045;SDS011;13044;49.304;12.840;2023-04-24T01:53:00;2.33;;;2.00;;
25045;SDS011;13044;49.304;12.840;2023-04-24T01:55:27;2.40;;;2.20;;
25045;SDS011;13044;49.304;12.840;2023-04-24T01:57:54;2.85;;;2.20;;
25045;SDS011;13044;49.304;12.840;2023-04-24T02:00:22;5.68;;;2.60;;
25045;SDS011;13044;49.304;12.840;2023-04-24T02:02:51;2.40;;;2.20;;
25045;SDS011;13044;49.304;12.840;2023-04-24T02:05:18;3.03;;;2.60;;
25045;SDS011;13044;49.304;12.840;2023-04-24T02:07:45;2.40;;;2.20;;
25045;SDS011;13044;49.304;12.840;2023-04-24T02:10:12;4.43;;;2.70;;
25045;SDS011;13044;49.304;12.840;2023-04-24T02:12:39;3.53;;;2.80;;
25045;SDS011;13044;49.304;12.840;2023-04-24T02:15:06;6.10;;;2.30;;
25045;SDS011;13044;49.304;12.840;2023-04-24T02:17:33;3.55;;;2.58;;
25045;SDS011;13044;49.304;12.840;2023-04-24T02:20:00;3.13;;;2.58;;
25045;SDS011;13044;49.304;12.840;2023-04-24T02:22:27;3.05;;;2.25;;
25045;SDS011;13044;49.304;12.840;2023-04-24T02:24:53;3.65;;;2.80;;
25045;SDS011;13044;49.304;12.840;2023-04-24T02:27:20;3.33;;;3.00;;
25045;SDS011;13044;49.304;12.840;2023-04-24T02:29:47;4.50;;;3.15;;
25045;SDS011;13044;49.304;12.840;2023-04-24T02:32:14;4.53;;;3.28;;
25045;SDS011;13044;49.304;12.840;2023-04-24T02:34:42;3.83;;;3.10;;
25045;SDS011;13044;49.304;12.840;2023-04-24T02:37:09;5.07;;;3.45;;
25045;SDS011;13044;49.304;12.840;2023-04-24T02:39:36;5.88;;;3.30;;
25045;SDS011;13044;49.304;12.840;2023-04-24T02:42:03;5.13;;;3.28;;
25045;SDS011;13044;49.304;12.840;2023-04-24T02:44:30;5.05;;;3.30;;
25045;SDS011;13044;49.304;12.840;2023-04-24T02:46:57;4.10;;;3.22;;
25045;SDS011;13044;49.304;12.840;2023-04-24T02:49:23;3.85;;;3.17;;
25045;SDS011;13044;49.304;12.840;2023-04-24T02:51:51;3.55;;;2.88;;
25045;SDS011;13044;49.304;12.840;2023-04-24T02:54:18;4.13;;;2.80;;
25045;SDS011;13044;49.304;12.840;2023-04-24T02:56:45;4.30;;;3.05;;
25045;SDS011;13044;49.304;12.840;2023-04-24T02:59:12;3.00;;;2.80;;
25045;SDS011;13044;49.304;12.840;2023-04-24T03:01:39;3.30;;;3.00;;
25045;SDS011;13044;49.304;12.840;2023-04-24T03:04:06;3.75;;;2.72;;
25045;SDS011;13044;49.304;12.840;2023-04-24T03:06:33;3.88;;;3.47;;
25045;SDS011;13044;49.304;12.840;2023-04-24T03:09:01;3.17;;;2.88;;
25045;SDS011;13044;49.304;12.840;2023-04-24T03:11:29;5.45;;;2.75;;
25045;SDS011;13044;49.304;12.840;2023-04-24T03:13:56;4.05;;;3.30;;
25045;SDS011;13044;49.304;12.840;2023-04-24T03:16:23;3.35;;;2.50;;
25045;SDS011;13044;49.304;12.840;2023-04-24T03:18:50;5.03;;;2.95;;
25045;SDS011;13044;49.304;12.840;2023-04-24T03:21:17;4.18;;;2.85;;
25045;SDS011;13044;49.304;12.840;2023-04-24T03:23:44;5.82;;;2.90;;
25045;SDS011;13044;49.304;12.840;2023-04-24T03:26:11;2.60;;;2.38;;
25045;SDS011;13044;49.304;12.840;2023-04-24T03:28:38;3.25;;;2.85;;
25045;SDS011;13044;49.304;12.840;2023-04-24T03:31:05;3.10;;;2.80;;
25045;SDS011;13044;49.304;12.840;2023-04-24T03:33:32;3.80;;;3.10;;
25045;SDS011;13044;49.304;12.840;2023-04-24T03:35:59;4.93;;;3.20;;
25045;SDS011;13044;49.304;12.840;2023-04-24T03:38:26;3.17;;;2.80;;
25045;SDS011;13044;49.304;12.840;2023-04-24T03:40:53;3.53;;;3.03;;
25045;SDS011;13044;49.304;12.840;2023-04-24T03:43:20;3.15;;;2.85;;
25045;SDS011;13044;49.304;12.840;2023-04-24T03:45:47;3.70;;;3.40;;
25045;SDS011;13044;49.304;12.840;2023-04-24T03:48:14;3.65;;;3.33;;
25045;SDS011;13044;49.304;12.840;2023-04-24T03:50:41;3.88;;;3.47;;
25045;SDS011;13044;49.304;12.840;2023-04-24T03:53:07;3.80;;;3.50;;
25045;SDS011;13044;49.304;12.840;2023-04-24T03:55:34;3.80;;;3.50;;
25045;SDS011;13044;49.304;12.840;2023-04-24T03:58:01;3.63;;;3.33;;
25045;SDS011;13044;49.304;12.840;2023-04-24T04:00:28;5.07;;;4.40;;
25045;SDS011;13044;49.304;12.840;2023-04-24T04:02:57;7.55;;;5.57;;
25045;SDS011;13044;49.304;12.840;2023-04-24T04:05:24;7.43;;;4.53;;
25045;SDS011;13044;49.304;12.840;2023-04-24T04:07:51;5.25;;;4.53;;
25045;SDS011;13044;49.304;12.840;2023-04-24T04:10:18;4.80;;;4.28;;
25045;SDS011;13044;49.304;12.840;2023-04-24T04:12:45;6.35;;;3.75;;
25045;SDS011;13044;49.304;12.840;2023-04-24T04:15:12;4.50;;;3.85;;
25045;SDS011;13044;49.304;12.840;2023-04-24T04:17:39;4.90;;;4.00;;
25045;SDS011;13044;49.304;12.840;2023-04-24T04:20:06;5.55;;;4.53;;
25045;SDS011;13044;49.304;12.840;2023-04-24T04:22:35;5.05;;;4.55;;
25045;SDS011;13044;49.304;12.840;2023-04-24T04:25:03;7.03;;;4.78;;
25045;SDS011;13044;49.304;12.840;2023-04-24T04:27:31;6.07;;;4.75;;
25045;SDS011;13044;49.304;12.840;2023-04-24T04:29:58;5.38;;;4.88;;
25045;SDS011;13044;49.304;12.840;2023-04-24T04:32:31;7.22;;;4.72;;
25045;SDS011;13044;49.304;12.840;2023-04-24T04:34:59;7.25;;;5.47;;
25045;SDS011;13044;49.304;12.840;2023-04-24T04:37:33;6.70;;;5.07;;
25045;SDS011;13044;49.304;12.840;2023-04-24T04:40:00;5.50;;;5.00;;
25045;SDS011;13044;49.304;12.840;2023-04-24T04:42:37;8.07;;;5.22;;
25045;SDS011;13044;49.304;12.840;2023-04-24T04:45:07;11.18;;;5.57;;
25045;SDS011;13044;49.304;12.840;2023-04-24T04:47:37;8.82;;;5.35;;
25045;SDS011;13044;49.304;12.840;2023-04-24T04:50:05;8.52;;;6.43;;
25045;SDS011;13044;49.304;12.840;2023-04-24T04:52:33;7.05;;;6.03;;
25045;SDS011;13044;49.304;12.840;2023-04-24T04:55:00;11.48;;;9.27;;
25045;SDS011;13044;49.304;12.840;2023-04-24T04:57:28;11.10;;;7.97;;
25045;SDS011;13044;49.304;12.840;2023-04-24T04:59:56;8.75;;;6.57;;
25045;SDS011;13044;49.304;12.840;2023-04-24T05:02:23;9.45;;;6.43;;
25045;SDS011;13044;49.304;12.840;2023-04-24T05:04:50;7.20;;;6.50;;
25045;SDS011;13044;49.304;12.840;2023-04-24T05:07:17;10.10;;;5.85;;
25045;SDS011;13044;49.304;12.840;2023-04-24T05:09:44;10.65;;;6.38;;
25045;SDS011;13044;49.304;12.840;2023-04-24T05:12:11;7.30;;;6.60;;
25045;SDS011;13044;49.304;12.840;2023-04-24T05:14:38;9.02;;;7.00;;
25045;SDS011;13044;49.304;12.840;2023-04-24T05:17:06;7.70;;;6.85;;
25045;SDS011;13044;49.304;12.840;2023-04-24T05:19:34;8.93;;;8.05;;
25045;SDS011;13044;49.304;12.840;2023-04-24T05:22:04;9.32;;;7.97;;
25045;SDS011;13044;49.304;12.840;2023-04-24T05:24:33;10.48;;;8.70;;
25045;SDS011;13044;49.304;12.840;2023-04-24T05:27:01;9.20;;;7.55;;
25045;SDS011;13044;49.304;12.840;2023-04-24T05:29:31;9.07;;;7.32;;
25045;SDS011;13044;49.304;12.840;2023-04-24T05:31:59;12.35;;;7.90;;
25045;SDS011;13044;49.304;12.840;2023-04-24T05:34:27;10.15;;;7.65;;
25045;SDS011;13044;49.304;12.840;2023-04-24T05:36:54;8.25;;;7.45;;
25045;SDS011;13044;49.304;12.840;2023-04-24T05:39:22;8.40;;;7.22;;
25045;SDS011;13044;49.304;12.840;2023-04-24T05:41:51;9.60;;;8.30;;
25045;SDS011;13044;49.304;12.840;2023-04-24T05:44:18;10.27;;;8.48;;
25045;SDS011;13044;49.304;12.840;2023-04-24T05:46:45;8.35;;;7.35;;
25045;SDS011;13044;49.304;12.840;2023-04-24T05:49:13;11.85;;;8.27;;
25045;SDS011;13044;49.304;12.840;2023-04-24T05:51:41;10.23;;;7.63;;
25045;SDS011;13044;49.304;12.840;2023-04-24T05:54:08;9.52;;;8.52;;
25045;SDS011;13044;49.304;12.840;2023-04-24T05:56:36;9.70;;;8.70;;
25045;SDS011;13044;49.304;12.840;2023-04-24T05:59:06;11.88;;;8.63;;
25045;SDS011;13044;49.304;12.840;2023-04-24T06:01:34;11.63;;;9.15;;
25045;SDS011;13044;49.304;12.840;2023-04-24T06:04:05;9.95;;;7.95;;
25045;SDS011;13044;49.304;12.840;2023-04-24T06:06:33;8.93;;;8.02;;
25045;SDS011;13044;49.304;12.840;2023-04-24T06:09:01;12.05;;;8.50;;
25045;SDS011;13044;49.304;12.840;2023-04-24T06:11:29;9.27;;;8.32;;
25045;SDS011;13044;49.304;12.840;2023-04-24T06:13:56;9.68;;;8.05;;
25045;SDS011;13044;49.304;12.840;2023-04-24T06:16:23;14.18;;;8.50;;
25045;SDS011;13044;49.304;12.840;2023-04-24T06:18:50;10.05;;;8.00;;
25045;SDS011;13044;49.304;12.840;2023-04-24T06:21:17;13.07;;;8.35;;
25045;SDS011;13044;49.304;12.840;2023-04-24T06:23:44;10.88;;;8.50;;
25045;SDS011;13044;49.304;12.840;2023-04-24T06:26:12;8.80;;;7.75;;
25045;SDS011;13044;49.304;12.840;2023-04-24T06:28:40;11.38;;;8.43;;
25045;SDS011;13044;49.304;12.840;2023-04-24T06:31:07;8.57;;;7.68;;
25045;SDS011;13044;49.304;12.840;2023-04-24T06:33:34;12.68;;;7.97;;
25045;SDS011;13044;49.304;12.840;2023-04-24T06:36:02;8.85;;;7.72;;
25045;SDS011;13044;49.304;12.840;2023-04-24T06:38:30;11.13;;;8.20;;
25045;SDS011;13044;49.304;12.840;2023-04-24T06:40:57;9.68;;;8.50;;
25045;SDS011;13044;49.304;12.840;2023-04-24T06:43:24;10.77;;;8.30;;
25045;SDS011;13044;49.304;12.840;2023-04-24T06:45:52;8.88;;;7.45;;
25045;SDS011;13044;49.304;12.840;2023-04-24T06:48:19;8.70;;;7.13;;
25045;SDS011;13044;49.304;12.840;2023-04-24T06:50:46;12.43;;;7.38;;
25045;SDS011;13044;49.304;12.840;2023-04-24T06:53:13;9.77;;;7.45;;
25045;SDS011;13044;49.304;12.840;2023-04-24T06:55:42;7.63;;;6.80;;
25045;SDS011;13044;49.304;12.840;2023-04-24T06:58:11;10.60;;;7.22;;
25045;SDS011;13044;49.304;12.840;2023-04-24T07:00:38;9.82;;;7.47;;
25045;SDS011;13044;49.304;12.840;2023-04-24T07:03:05;9.75;;;6.60;;
25045;SDS011;13044;49.304;12.840;2023-04-24T07:05:33;9.48;;;7.03;;
25045;SDS011;13044;49.304;12.840;2023-04-24T07:08:01;11.02;;;7.07;;
25045;SDS011;13044;49.304;12.840;2023-04-24T07:10:29;8.18;;;6.13;;
25045;SDS011;13044;49.304;12.840;2023-04-24T07:12:56;8.32;;;6.68;;
25045;SDS011;13044;49.304;12.840;2023-04-24T07:15:23;9.73;;;6.65;;
25045;SDS011;13044;49.304;12.840;2023-04-24T07:17:51;8.40;;;5.60;;
25045;SDS011;13044;49.304;12.840;2023-04-24T07:20:18;7.38;;;5.90;;
25045;SDS011;13044;49.304;12.840;2023-04-24T07:22:45;6.38;;;5.15;;
25045;SDS011;13044;49.304;12.840;2023-04-24T07:25:14;7.22;;;5.55;;
25045;SDS011;13044;49.304;12.840;2023-04-24T07:27:41;8.18;;;5.22;;
25045;SDS011;13044;49.304;12.840;2023-04-24T07:30:08;9.80;;;5.47;;
25045;SDS011;13044;49.304;12.840;2023-04-24T07:32:37;6.18;;;5.32;;
25045;SDS011;13044;49.304;12.840;2023-04-24T07:35:05;7.03;;;5.47;;
25045;SDS011;13044;49.304;12.840;2023-04-24T07:37:33;7.13;;;5.38;;
25045;SDS011;13044;49.304;12.840;2023-04-24T07:40:00;8.20;;;5.22;;
25045;SDS011;13044;49.304;12.840;2023-04-24T07:42:29;5.68;;;4.50;;
25045;SDS011;13044;49.304;12.840;2023-04-24T07:45:01;10.45;;;5.20;;
25045;SDS011;13044;49.304;12.840;2023-04-24T07:47:29;6.20;;;5.05;;
25045;SDS011;13044;49.304;12.840;2023-04-24T07:49:57;6.50;;;4.70;;
25045;SDS011;13044;49.304;12.840;2023-04-24T07:52:24;4.63;;;3.65;;
25045;SDS011;13044;49.304;12.840;2023-04-24T07:54:51;11.57;;;4.53;;
25045;SDS011;13044;49.304;12.840;2023-04-24T07:59:54;5.22;;;3.60;;
25045;SDS011;13044;49.304;12.840;2023-04-24T08:02:21;5.78;;;3.50;;
25045;SDS011;13044;49.304;12.840;2023-04-24T08:04:52;4.13;;;3.03;;
25045;SDS011;13044;49.304;12.840;2023-04-24T08:07:25;5.32;;;3.10;;
25045;SDS011;13044;49.304;12.840;2023-04-24T08:09:52;4.68;;;3.00;;
25045;SDS011;13044;49.304;12.840;2023-04-24T08:12:19;4.43;;;3.60;;
25045;SDS011;13044;49.304;12.840;2023-04-24T08:14:45;9.65;;;3.50;;
25045;SDS011;13044;49.304;12.840;2023-04-24T08:17:12;6.22;;;3.10;;
25045;SDS011;13044;49.304;12.840;2023-04-24T08:19:40;3.25;;;2.53;;
25045;SDS011;13044;49.304;12.840;2023-04-24T08:22:14;4.35;;;2.55;;
25045;SDS011;13044;49.304;12.840;2023-04-24T08:24:41;3.20;;;2.75;;
25045;SDS011;13044;49.304;12.840;2023-04-24T08:27:10;3.28;;;2.50;;
25045;SDS011;13044;49.304;12.840;2023-04-24T08:29:37;2.90;;;2.60;;
25045;SDS011;13044;49.304;12.840;2023-04-24T08:32:04;3.10;;;2.35;;
25045;SDS011;13044;49.304;12.840;2023-04-24T08:34:31;4.63;;;2.33;;
25045;SDS011;13044;49.304;12.840;2023-04-24T08:36:58;2.42;;;2.00;;
25045;SDS011;13044;49.304;12.840;2023-04-24T08:39:25;4.43;;;3.00;;
25045;SDS011;13044;49.304;12.840;2023-04-24T08:41:52;3.95;;;2.30;;
25045;SDS011;13044;49.304;12.840;2023-04-24T08:44:21;3.45;;;2.05;;
25045;SDS011;13044;49.304;12.840;2023-04-24T08:46:48;2.63;;;2.22;;
25045;SDS011;13044;49.304;12.840;2023-04-24T08:49:15;3.88;;;1.77;;
25045;SDS011;13044;49.304;12.840;2023-04-24T08:51:44;3.58;;;2.15;;
25045;SDS011;13044;49.304;12.840;2023-04-24T08:54:13;2.55;;;2.13;;
25045;SDS011;13044;49.304;12.840;2023-04-24T08:56:41;2.40;;;2.20;;
25045;SDS011;13044;49.304;12.840;2023-04-24T08:59:11;3.22;;;2.00;;
25045;SDS011;13044;49.304;12.840;2023-04-24T09:01:38;4.38;;;1.88;;
25045;SDS011;13044;49.304;12.840;2023-04-24T09:04:08;3.17;;;2.00;;
25045;SDS011;13044;49.304;12.840;2023-04-24T09:06:37;2.95;;;1.95;;
25045;SDS011;13044;49.304;12.840;2023-04-24T09:09:04;4.40;;;1.90;;
25045;SDS011;13044;49.304;12.840;2023-04-24T09:11:31;2.28;;;1.90;;
25045;SDS011;13044;49.304;12.840;2023-04-24T09:13:59;4.13;;;1.90;;
25045;SDS011;13044;49.304;12.840;2023-04-24T09:16:26;4.22;;;1.90;;
25045;SDS011;13044;49.304;12.840;2023-04-24T09:18:55;5.03;;;1.75;;
25045;SDS011;13044;49.304;12.840;2023-04-24T09:21:22;3.13;;;2.28;;
25045;SDS011;13044;49.304;12.840;2023-04-24T09:23:59;2.40;;;1.83;;
25045;SDS011;13044;49.304;12.840;2023-04-24T09:26:30;3.55;;;1.75;;
25045;SDS011;13044;49.304;12.840;2023-04-24T09:28:59;3.38;;;1.40;;
25045;SDS011;13044;49.304;12.840;2023-04-24T09:31:27;3.10;;;1.42;;
25045;SDS011;13044;49.304;12.840;2023-04-24T09:39:11;2.85;;;1.63;;
25045;SDS011;13044;49.304;12.840;2023-04-24T09:44:24;1.95;;;1.30;;
25045;SDS011;13044;49.304;12.840;2023-04-24T09:46:57;3.88;;;1.88;;
25045;SDS011;13044;49.304;12.840;2023-04-24T09:49:27;1.85;;;1.45;;
25045;SDS011;13044;49.304;12.840;2023-04-24T09:52:09;3.35;;;1.40;;
25045;SDS011;13044;49.304;12.840;2023-04-24T09:54:37;4.32;;;1.38;;
25045;SDS011;13044;49.304;12.840;2023-04-24T09:57:07;1.60;;;1.30;;
25045;SDS011;13044;49.304;12.840;2023-04-24T09:59:35;1.73;;;1.10;;
25045;SDS011;13044;49.304;12.840;2023-04-24T10:02:19;2.13;;;1.27;;
25045;SDS011;13044;49.304;12.840;2023-04-24T10:04:56;2.72;;;1.48;;
25045;SDS011;13044;49.304;12.840;2023-04-24T10:07:26;2.70;;;1.58;;
25045;SDS011;13044;49.304;12.840;2023-04-24T10:09:53;2.30;;;1.40;;
25045;SDS011;13044;49.304;12.840;2023-04-24T10:12:21;2.40;;;1.40;;
25045;SDS011;13044;49.304;12.840;2023-04-24T10:14:49;2.47;;;1.48;;
25045;SDS011;13044;49.304;12.840;2023-04-24T10:17:16;2.97;;;1.58;;
25045;SDS011;13044;49.304;12.840;2023-04-24T10:19:44;2.10;;;1.67;;
25045;SDS011;13044;49.304;12.840;2023-04-24T10:22:13;2.67;;;1.45;;
25045;SDS011;13044;49.304;12.840;2023-04-24T10:24:43;3.75;;;2.95;;
25045;SDS011;13044;49.304;12.840;2023-04-24T10:27:11;2.97;;;2.10;;
25045;SDS011;13044;49.304;12.840;2023-04-24T10:29:41;2.30;;;2.08;;
25045;SDS011;13044;49.304;12.840;2023-04-24T10:32:10;4.75;;;2.35;;
25045;SDS011;13044;49.304;12.840;2023-04-24T10:34:37;3.25;;;2.08;;
25045;SDS011;13044;49.304;12.840;2023-04-24T10:37:04;3.63;;;2.20;;
25045;SDS011;13044;49.304;12.840;2023-04-24T10:39:31;5.63;;;2.70;;
25045;SDS011;13044;49.304;12.840;2023-04-24T10:42:00;3.47;;;2.03;;
25045;SDS011;13044;49.304;12.840;2023-04-24T10:44:27;3.22;;;2.10;;
25045;SDS011;13044;49.304;12.840;2023-04-24T10:47:03;3.83;;;2.03;;
25045;SDS011;13044;49.304;12.840;2023-04-24T10:49:30;4.40;;;2.30;;
25045;SDS011;13044;49.304;12.840;2023-04-24T10:52:02;3.67;;;1.90;;
25045;SDS011;13044;49.304;12.840;2023-04-24T10:54:36;5.30;;;2.08;;
25045;SDS011;13044;49.304;12.840;2023-04-24T10:59:46;3.42;;;1.88;;
25045;SDS011;13044;49.304;12.840;2023-04-24T11:02:14;5.03;;;3.15;;
25045;SDS011;13044;49.304;12.840;2023-04-24T11:04:42;3.97;;;2.70;;
25045;SDS011;13044;49.304;12.840;2023-04-24T11:07:11;9.80;;;4.50;;
25045;SDS011;13044;49.304;12.840;2023-04-24T11:09:38;2.85;;;2.08;;
25045;SDS011;13044;49.304;12.840;2023-04-24T11:12:10;2.05;;;1.63;;
25045;SDS011;13044;49.304;12.840;2023-04-24T11:15:13;7.05;;;3.50;;
25045;SDS011;13044;49.304;12.840;2023-04-24T11:17:37;4.97;;;2.40;;
25045;SDS011;13044;49.304;12.840;2023-04-24T11:20:07;7.72;;;3.97;;
25045;SDS011;13044;49.304;12.840;2023-04-24T11:22:54;5.32;;;2.13;;
25045;SDS011;13044;49.304;12.840;2023-04-24T11:25:22;2.13;;;1.70;;
25045;SDS011;13044;49.304;12.840;2023-04-24T11:27:49;2.53;;;1.63;;
25045;SDS011;13044;49.304;12.840;2023-04-24T11:30:29;2.10;;;1.90;;
25045;SDS011;13044;49.304;12.840;2023-04-24T11:33:02;3.08;;;1.52;;
25045;SDS011;13044;49.304;12.840;2023-04-24T11:35:30;1.70;;;1.60;;
25045;SDS011;13044;49.304;12.840;2023-04-24T11:38:03;1.50;;;1.40;;
25045;SDS011;13044;49.304;12.840;2023-04-24T11:40:34;1.80;;;1.63;;
25045;SDS011;13044;49.304;12.840;2023-04-24T11:43:02;4.80;;;1.45;;
25045;SDS011;13044;49.304;12.840;2023-04-24T11:45:33;2.75;;;1.45;;
25045;SDS011;13044;49.304;12.840;2023-04-24T11:48:00;1.73;;;1.42;;
25045;SDS011;13044;49.304;12.840;2023-04-24T11:50:29;1.90;;;1.70;;
25045;SDS011;13044;49.304;12.840;2023-04-24T11:52:56;1.90;;;1.48;;
25045;SDS011;13044;49.304;12.840;2023-04-24T11:55:24;1.63;;;1.52;;
25045;SDS011;13044;49.304;12.840;2023-04-24T11:57:57;2.35;;;1.52;;
25045;SDS011;13044;49.304;12.840;2023-04-24T12:00:26;1.30;;;1.20;;
25045;SDS011;13044;49.304;12.840;2023-04-24T12:03:04;3.40;;;1.45;;
25045;SDS011;13044;49.304;12.840;2023-04-24T12:05:36;6.13;;;3.75;;
25045;SDS011;13044;49.304;12.840;2023-04-24T12:08:05;4.88;;;2.50;;
25045;SDS011;13044;49.304;12.840;2023-04-24T12:10:32;4.32;;;1.98;;
25045;SDS011;13044;49.304;12.840;2023-04-24T12:13:01;1.50;;;1.40;;
25045;SDS011;13044;49.304;12.840;2023-04-24T12:15:28;7.55;;;4.30;;
25045;SDS011;13044;49.304;12.840;2023-04-24T12:17:55;2.63;;;1.77;;
25045;SDS011;13044;49.304;12.840;2023-04-24T12:20:32;1.60;;;1.50;;
25045;SDS011;13044;49.304;12.840;2023-04-24T12:23:00;1.60;;;1.50;;
25045;SDS011;13044;49.304;12.840;2023-04-24T12:25:31;2.00;;;1.15;;
25045;SDS011;13044;49.304;12.840;2023-04-24T12:30:38;2.00;;;1.20;;
25045;SDS011;13044;49.304;12.840;2023-04-24T12:33:11;1.67;;;1.30;;
25045;SDS011;13044;49.304;12.840;2023-04-24T12:35:39;1.88;;;1.50;;
25045;SDS011;13044;49.304;12.840;2023-04-24T12:38:08;2.95;;;1.33;;
25045;SDS011;13044;49.304;12.840;2023-04-24T12:40:36;1.90;;;1.42;;
25045;SDS011;13044;49.304;12.840;2023-04-24T12:43:12;2.70;;;1.70;;
25045;SDS011;13044;49.304;12.840;2023-04-24T12:45:41;1.90;;;1.45;;
25045;SDS011;13044;49.304;12.840;2023-04-24T12:48:08;1.85;;;1.40;;
25045;SDS011;13044;49.304;12.840;2023-04-24T12:50:35;1.65;;;1.50;;
25045;SDS011;13044;49.304;12.840;2023-04-24T12:53:02;2.83;;;1.25;;
25045;SDS011;13044;49.304;12.840;2023-04-24T12:55:29;3.33;;;1.30;;
25045;SDS011;13044;49.304;12.840;2023-04-24T12:57:55;2.67;;;1.45;;
25045;SDS011;13044;49.304;12.840;2023-04-24T13:00:22;2.85;;;1.60;;
25045;SDS011;13044;49.304;12.840;2023-04-24T13:02:52;1.65;;;1.30;;
25045;SDS011;13044;49.304;12.840;2023-04-24T13:05:19;2.85;;;2.10;;
25045;SDS011;13044;49.304;12.840;2023-04-24T13:07:50;6.60;;;3.13;;
25045;SDS011;13044;49.304;12.840;2023-04-24T13:10:16;3.03;;;2.00;;
25045;SDS011;13044;49.304;12.840;2023-04-24T13:12:43;2.70;;;1.90;;
25045;SDS011;13044;49.304;12.840;2023-04-24T13:15:12;2.85;;;1.73;;
25045;SDS011;13044;49.304;12.840;2023-04-24T13:17:39;1.92;;;1.48;;
25045;SDS011;13044;49.304;12.840;2023-04-24T13:20:06;4.85;;;2.95;;
25045;SDS011;13044;49.304;12.840;2023-04-24T13:22:33;1.52;;;1.42;;
25045;SDS011;13044;49.304;12.840;2023-04-24T13:25:00;2.05;;;1.50;;
25045;SDS011;13044;49.304;12.840;2023-04-24T13:27:27;2.92;;;1.70;;
25045;SDS011;13044;49.304;12.840;2023-04-24T13:29:54;4.28;;;3.08;;
25045;SDS011;13044;49.304;12.840;2023-04-24T13:32:21;1.60;;;1.48;;
25045;SDS011;13044;49.304;12.840;2023-04-24T13:34:48;3.75;;;1.70;;
25045;SDS011;13044;49.304;12.840;2023-04-24T13:37:14;3.00;;;1.45;;
25045;SDS011;13044;49.304;12.840;2023-04-24T13:39:41;2.67;;;1.65;;
25045;SDS011;13044;49.304;12.840;2023-04-24T13:42:08;1.55;;;1.40;;
25045;SDS011;13044;49.304;12.840;2023-04-24T13:44:35;3.90;;;1.80;;
25045;SDS011;13044;49.304;12.840;2023-04-24T13:47:02;2.88;;;1.83;;
25045;SDS011;13044;49.304;12.840;2023-04-24T13:49:29;3.42;;;1.40;;
25045;SDS011;13044;49.304;12.840;2023-04-24T13:51:56;4.57;;;1.38;;
25045;SDS011;13044;49.304;12.840;2023-04-24T13:54:23;4.47;;;2.10;;
25045;SDS011;13044;49.304;12.840;2023-04-24T13:56:52;3.03;;;2.00;;
25045;SDS011;13044;49.304;12.840;2023-04-24T13:59:19;4.30;;;2.70;;
25045;SDS011;13044;49.304;12.840;2023-04-24T14:01:47;5.45;;;3.28;;
25045;SDS011;13044;49.304;12.840;2023-04-24T14:04:14;10.90;;;4.10;;
25045;SDS011;13044;49.304;12.840;2023-04-24T14:06:43;6.35;;;3.33;;
25045;SDS011;13044;49.304;12.840;2023-04-24T14:09:10;6.28;;;2.67;;
25045;SDS011;13044;49.304;12.840;2023-04-24T14:11:37;4.47;;;3.25;;
25045;SDS011;13044;49.304;12.840;2023-04-24T14:14:04;2.92;;;2.00;;
25045;SDS011;13044;49.304;12.840;2023-04-24T14:16:31;1.42;;;1.33;;
25045;SDS011;13044;49.304;12.840;2023-04-24T14:18:58;1.15;;;1.10;;
25045;SDS011;13044;49.304;12.840;2023-04-24T14:21:25;1.50;;;1.40;;
25045;SDS011;13044;49.304;12.840;2023-04-24T14:23:52;5.10;;;2.83;;
25045;SDS011;13044;49.304;12.840;2023-04-24T14:26:19;4.75;;;3.35;;
25045;SDS011;13044;49.304;12.840;2023-04-24T14:28:46;3.33;;;2.75;;
25045;SDS011;13044;49.304;12.840;2023-04-24T14:31:13;1.85;;;1.75;;
25045;SDS011;13044;49.304;12.840;2023-04-24T14:33:39;1.40;;;1.30;;
25045;SDS011;13044;49.304;12.840;2023-04-24T14:36:06;2.17;;;1.70;;
25045;SDS011;13044;49.304;12.840;2023-04-24T14:38:33;2.47;;;1.10;;
25045;SDS011;13044;49.304;12.840;2023-04-24T14:41:01;1.10;;;1.00;;
25045;SDS011;13044;49.304;12.840;2023-04-24T14:43:38;3.08;;;1.10;;
25045;SDS011;13044;49.304;12.840;2023-04-24T14:46:05;1.27;;;1.10;;
25045;SDS011;13044;49.304;12.840;2023-04-24T14:48:32;1.42;;;1.17;;
25045;SDS011;13044;49.304;12.840;2023-04-24T14:50:58;3.28;;;1.10;;
25045;SDS011;13044;49.304;12.840;2023-04-24T14:53:25;3.50;;;1.30;;
25045;SDS011;13044;49.304;12.840;2023-04-24T14:55:53;1.35;;;1.20;;